<?xml version="1.0" encoding="UTF-8" standalone="no" ?>
<gpx xmlns="http://www.topografix.com/GPX/1/1" xmlns:xsi="http://www.w3.org/2001/XMLSchema-instance" xsi:schemaLocation="http://www.topografix.com/GPX/1/1 http://www.topografix.com/GPX/1/1/gpx.xsd" version="1.1" creator="VisuGPX - https://www.visugpx.com">
  <metadata>
    <name>A faire - Run Intra BALMA (11,5 km)</name>
    <desc><![CDATA[Run Intra BALMA (11,5 km)]]></desc>
  </metadata>
  <trk>
    <name><![CDATA[Run Intra BALMA (11,5 km)-14200544]]></name>
    <trkseg>
      <trkpt lat="43.60658" lon="1.49576">
        <ele>143</ele>
        <time>2026-01-26T12:57:18Z</time>
      </trkpt>
      <trkpt lat="43.60711" lon="1.49631">
        <ele>146</ele>
        <time>2026-01-26T12:58:11Z</time>
      </trkpt>
      <trkpt lat="43.60716" lon="1.49668">
        <ele>148</ele>
        <time>2026-01-26T12:58:33Z</time>
      </trkpt>
      <trkpt lat="43.60618" lon="1.49742">
        <ele>152</ele>
        <time>2026-01-26T13:00:02Z</time>
      </trkpt>
      <trkpt lat="43.60601" lon="1.49727">
        <ele>150</ele>
        <time>2026-01-26T13:00:18Z</time>
      </trkpt>
      <trkpt lat="43.60564" lon="1.4973">
        <ele>149</ele>
        <time>2026-01-26T13:00:48Z</time>
      </trkpt>
      <trkpt lat="43.60452" lon="1.4982">
        <ele>153</ele>
        <time>2026-01-26T13:02:32Z</time>
      </trkpt>
      <trkpt lat="43.60234" lon="1.50126">
        <ele>159</ele>
        <time>2026-01-26T13:06:41Z</time>
      </trkpt>
      <trkpt lat="43.60216" lon="1.50071">
        <ele>155</ele>
        <time>2026-01-26T13:07:16Z</time>
      </trkpt>
      <trkpt lat="43.60195" lon="1.4994">
        <ele>148</ele>
        <time>2026-01-26T13:08:34Z</time>
      </trkpt>
      <trkpt lat="43.60162" lon="1.49827">
        <ele>145</ele>
        <time>2026-01-26T13:09:44Z</time>
      </trkpt>
      <trkpt lat="43.60096" lon="1.49686">
        <ele>140</ele>
        <time>2026-01-26T13:11:22Z</time>
      </trkpt>
      <trkpt lat="43.60044" lon="1.49685">
        <ele>139</ele>
        <time>2026-01-26T13:12:03Z</time>
      </trkpt>
      <trkpt lat="43.59926" lon="1.49636">
        <ele>139</ele>
        <time>2026-01-26T13:13:42Z</time>
      </trkpt>
      <trkpt lat="43.59662" lon="1.49696">
        <ele>139</ele>
        <time>2026-01-26T13:17:16Z</time>
      </trkpt>
      <trkpt lat="43.59629" lon="1.49651">
        <ele>139</ele>
        <time>2026-01-26T13:17:53Z</time>
      </trkpt>
      <trkpt lat="43.59585" lon="1.49685">
        <ele>140</ele>
        <time>2026-01-26T13:18:34Z</time>
      </trkpt>
      <trkpt lat="43.5944" lon="1.4964">
        <ele>140</ele>
        <time>2026-01-26T13:20:33Z</time>
      </trkpt>
      <trkpt lat="43.59476" lon="1.49872">
        <ele>143</ele>
        <time>2026-01-26T13:22:50Z</time>
      </trkpt>
      <trkpt lat="43.59445" lon="1.5002">
        <ele>146</ele>
        <time>2026-01-26T13:24:20Z</time>
      </trkpt>
      <trkpt lat="43.59417" lon="1.50011">
        <ele>145</ele>
        <time>2026-01-26T13:24:43Z</time>
      </trkpt>
      <trkpt lat="43.59256" lon="1.50112">
        <ele>146</ele>
        <time>2026-01-26T13:27:04Z</time>
      </trkpt>
      <trkpt lat="43.59094" lon="1.50249">
        <ele>146</ele>
        <time>2026-01-26T13:29:36Z</time>
      </trkpt>
      <trkpt lat="43.5925" lon="1.50455">
        <ele>148</ele>
        <time>2026-01-26T13:32:29Z</time>
      </trkpt>
      <trkpt lat="43.5927" lon="1.50486">
        <ele>149</ele>
        <time>2026-01-26T13:32:53Z</time>
      </trkpt>
      <trkpt lat="43.59286" lon="1.50548">
        <ele>149</ele>
        <time>2026-01-26T13:33:31Z</time>
      </trkpt>
      <trkpt lat="43.59385" lon="1.5064">
        <ele>148</ele>
        <time>2026-01-26T13:35:07Z</time>
      </trkpt>
      <trkpt lat="43.59485" lon="1.50681">
        <ele>149</ele>
        <time>2026-01-26T13:36:30Z</time>
      </trkpt>
      <trkpt lat="43.5948" lon="1.50631">
        <ele>148</ele>
        <time>2026-01-26T13:37:00Z</time>
      </trkpt>
      <trkpt lat="43.59519" lon="1.50499">
        <ele>147</ele>
        <time>2026-01-26T13:38:22Z</time>
      </trkpt>
      <trkpt lat="43.59569" lon="1.50459">
        <ele>147</ele>
        <time>2026-01-26T13:39:09Z</time>
      </trkpt>
      <trkpt lat="43.59651" lon="1.506">
        <ele>149</ele>
        <time>2026-01-26T13:40:53Z</time>
      </trkpt>
      <trkpt lat="43.59683" lon="1.50599">
        <ele>149</ele>
        <time>2026-01-26T13:41:19Z</time>
      </trkpt>
      <trkpt lat="43.59734" lon="1.50686">
        <ele>151</ele>
        <time>2026-01-26T13:42:24Z</time>
      </trkpt>
      <trkpt lat="43.59852" lon="1.50768">
        <ele>160</ele>
        <time>2026-01-26T13:44:10Z</time>
      </trkpt>
      <trkpt lat="43.60008" lon="1.50877">
        <ele>166</ele>
        <time>2026-01-26T13:46:30Z</time>
      </trkpt>
      <trkpt lat="43.60153" lon="1.50957">
        <ele>165</ele>
        <time>2026-01-26T13:48:35Z</time>
      </trkpt>
      <trkpt lat="43.6018" lon="1.51058">
        <ele>164</ele>
        <time>2026-01-26T13:49:37Z</time>
      </trkpt>
      <trkpt lat="43.60181" lon="1.51397">
        <ele>161</ele>
        <time>2026-01-26T13:52:54Z</time>
      </trkpt>
      <trkpt lat="43.60252" lon="1.51405">
        <ele>174</ele>
        <time>2026-01-26T13:53:51Z</time>
      </trkpt>
      <trkpt lat="43.60314" lon="1.51373">
        <ele>179</ele>
        <time>2026-01-26T13:54:44Z</time>
      </trkpt>
      <trkpt lat="43.60341" lon="1.51332">
        <ele>182</ele>
        <time>2026-01-26T13:55:16Z</time>
      </trkpt>
      <trkpt lat="43.60426" lon="1.51182">
        <ele>186</ele>
        <time>2026-01-26T13:57:06Z</time>
      </trkpt>
      <trkpt lat="43.60473" lon="1.51149">
        <ele>185</ele>
        <time>2026-01-26T13:57:49Z</time>
      </trkpt>
      <trkpt lat="43.60373" lon="1.50994">
        <ele>185</ele>
        <time>2026-01-26T13:59:49Z</time>
      </trkpt>
      <trkpt lat="43.60489" lon="1.50823">
        <ele>183</ele>
        <time>2026-01-26T14:02:05Z</time>
      </trkpt>
      <trkpt lat="43.60575" lon="1.5098">
        <ele>183</ele>
        <time>2026-01-26T14:03:59Z</time>
      </trkpt>
      <trkpt lat="43.6066" lon="1.51039">
        <ele>182</ele>
        <time>2026-01-26T14:05:15Z</time>
      </trkpt>
      <trkpt lat="43.60798" lon="1.50949">
        <ele>179</ele>
        <time>2026-01-26T14:07:17Z</time>
      </trkpt>
      <trkpt lat="43.60856" lon="1.51076">
        <ele>176</ele>
        <time>2026-01-26T14:08:44Z</time>
      </trkpt>
      <trkpt lat="43.60864" lon="1.51">
        <ele>176</ele>
        <time>2026-01-26T14:09:29Z</time>
      </trkpt>
      <trkpt lat="43.60903" lon="1.5102">
        <ele>174</ele>
        <time>2026-01-26T14:10:02Z</time>
      </trkpt>
      <trkpt lat="43.60972" lon="1.50917">
        <ele>172</ele>
        <time>2026-01-26T14:11:24Z</time>
      </trkpt>
      <trkpt lat="43.61017" lon="1.50786">
        <ele>169</ele>
        <time>2026-01-26T14:12:48Z</time>
      </trkpt>
      <trkpt lat="43.61112" lon="1.50609">
        <ele>165</ele>
        <time>2026-01-26T14:14:55Z</time>
      </trkpt>
      <trkpt lat="43.61216" lon="1.50804">
        <ele>172</ele>
        <time>2026-01-26T14:17:16Z</time>
      </trkpt>
      <trkpt lat="43.61308" lon="1.50917">
        <ele>173</ele>
        <time>2026-01-26T14:18:54Z</time>
      </trkpt>
      <trkpt lat="43.61288" lon="1.50944">
        <ele>174</ele>
        <time>2026-01-26T14:19:17Z</time>
      </trkpt>
      <trkpt lat="43.61283" lon="1.50982">
        <ele>176</ele>
        <time>2026-01-26T14:19:39Z</time>
      </trkpt>
      <trkpt lat="43.61318" lon="1.51053">
        <ele>178</ele>
        <time>2026-01-26T14:20:29Z</time>
      </trkpt>
      <trkpt lat="43.61346" lon="1.51049">
        <ele>178</ele>
        <time>2026-01-26T14:20:51Z</time>
      </trkpt>
      <trkpt lat="43.61355" lon="1.50943">
        <ele>174</ele>
        <time>2026-01-26T14:21:53Z</time>
      </trkpt>
      <trkpt lat="43.61431" lon="1.50843">
        <ele>181</ele>
        <time>2026-01-26T14:23:17Z</time>
      </trkpt>
      <trkpt lat="43.61547" lon="1.50881">
        <ele>186</ele>
        <time>2026-01-26T14:24:53Z</time>
      </trkpt>
      <trkpt lat="43.61663" lon="1.50977">
        <ele>189</ele>
        <time>2026-01-26T14:26:41Z</time>
      </trkpt>
      <trkpt lat="43.61697" lon="1.5082">
        <ele>184</ele>
        <time>2026-01-26T14:28:16Z</time>
      </trkpt>
      <trkpt lat="43.61743" lon="1.50667">
        <ele>181</ele>
        <time>2026-01-26T14:29:52Z</time>
      </trkpt>
      <trkpt lat="43.61713" lon="1.50644">
        <ele>181</ele>
        <time>2026-01-26T14:30:20Z</time>
      </trkpt>
      <trkpt lat="43.61689" lon="1.50505">
        <ele>179</ele>
        <time>2026-01-26T14:31:42Z</time>
      </trkpt>
      <trkpt lat="43.61665" lon="1.5041">
        <ele>172</ele>
        <time>2026-01-26T14:32:41Z</time>
      </trkpt>
      <trkpt lat="43.61627" lon="1.50374">
        <ele>172</ele>
        <time>2026-01-26T14:33:18Z</time>
      </trkpt>
      <trkpt lat="43.61629" lon="1.5033">
        <ele>172</ele>
        <time>2026-01-26T14:33:43Z</time>
      </trkpt>
      <trkpt lat="43.61625" lon="1.50296">
        <ele>171</ele>
        <time>2026-01-26T14:34:03Z</time>
      </trkpt>
      <trkpt lat="43.61611" lon="1.50235">
        <ele>169</ele>
        <time>2026-01-26T14:34:40Z</time>
      </trkpt>
      <trkpt lat="43.61616" lon="1.50204">
        <ele>168</ele>
        <time>2026-01-26T14:34:59Z</time>
      </trkpt>
      <trkpt lat="43.61581" lon="1.49977">
        <ele>160</ele>
        <time>2026-01-26T14:37:13Z</time>
      </trkpt>
      <trkpt lat="43.61559" lon="1.49771">
        <ele>155</ele>
        <time>2026-01-26T14:39:14Z</time>
      </trkpt>
      <trkpt lat="43.61571" lon="1.49742">
        <ele>155</ele>
        <time>2026-01-26T14:39:33Z</time>
      </trkpt>
      <trkpt lat="43.6151" lon="1.49699">
        <ele>153</ele>
        <time>2026-01-26T14:40:28Z</time>
      </trkpt>
      <trkpt lat="43.61386" lon="1.49616">
        <ele>149</ele>
        <time>2026-01-26T14:42:18Z</time>
      </trkpt>
      <trkpt lat="43.61368" lon="1.49605">
        <ele>149</ele>
        <time>2026-01-26T14:42:34Z</time>
      </trkpt>
      <trkpt lat="43.61347" lon="1.49598">
        <ele>148</ele>
        <time>2026-01-26T14:42:51Z</time>
      </trkpt>
      <trkpt lat="43.61267" lon="1.49619">
        <ele>151</ele>
        <time>2026-01-26T14:43:57Z</time>
      </trkpt>
      <trkpt lat="43.61264" lon="1.4967">
        <ele>153</ele>
        <time>2026-01-26T14:44:26Z</time>
      </trkpt>
      <trkpt lat="43.61166" lon="1.49693">
        <ele>155</ele>
        <time>2026-01-26T14:45:46Z</time>
      </trkpt>
      <trkpt lat="43.61141" lon="1.49701">
        <ele>155</ele>
        <time>2026-01-26T14:46:06Z</time>
      </trkpt>
      <trkpt lat="43.61115" lon="1.49731">
        <ele>155</ele>
        <time>2026-01-26T14:46:34Z</time>
      </trkpt>
      <trkpt lat="43.61102" lon="1.49796">
        <ele>158</ele>
        <time>2026-01-26T14:47:13Z</time>
      </trkpt>
      <trkpt lat="43.6107" lon="1.49803">
        <ele>158</ele>
        <time>2026-01-26T14:47:39Z</time>
      </trkpt>
      <trkpt lat="43.6099" lon="1.49753">
        <ele>156</ele>
        <time>2026-01-26T14:48:49Z</time>
      </trkpt>
      <trkpt lat="43.60985" lon="1.4993">
        <ele>160</ele>
        <time>2026-01-26T14:50:32Z</time>
      </trkpt>
      <trkpt lat="43.60924" lon="1.49926">
        <ele>162</ele>
        <time>2026-01-26T14:51:20Z</time>
      </trkpt>
      <trkpt lat="43.60928" lon="1.49975">
        <ele>163</ele>
        <time>2026-01-26T14:51:49Z</time>
      </trkpt>
      <trkpt lat="43.60761" lon="1.50193">
        <ele>174</ele>
        <time>2026-01-26T14:54:53Z</time>
      </trkpt>
      <trkpt lat="43.60754" lon="1.50218">
        <ele>174</ele>
        <time>2026-01-26T14:55:09Z</time>
      </trkpt>
      <trkpt lat="43.60744" lon="1.50218">
        <ele>174</ele>
        <time>2026-01-26T14:55:17Z</time>
      </trkpt>
      <trkpt lat="43.60732" lon="1.50269">
        <ele>175</ele>
        <time>2026-01-26T14:55:48Z</time>
      </trkpt>
      <trkpt lat="43.60741" lon="1.50293">
        <ele>176</ele>
        <time>2026-01-26T14:56:03Z</time>
      </trkpt>
      <trkpt lat="43.60684" lon="1.50385">
        <ele>180</ele>
        <time>2026-01-26T14:57:14Z</time>
      </trkpt>
      <trkpt lat="43.60668" lon="1.50422">
        <ele>182</ele>
        <time>2026-01-26T14:57:39Z</time>
      </trkpt>
      <trkpt lat="43.60666" lon="1.50465">
        <ele>185</ele>
        <time>2026-01-26T14:58:04Z</time>
      </trkpt>
      <trkpt lat="43.6068" lon="1.50488">
        <ele>187</ele>
        <time>2026-01-26T14:58:21Z</time>
      </trkpt>
      <trkpt lat="43.6072" lon="1.50454">
        <ele>183</ele>
        <time>2026-01-26T14:58:59Z</time>
      </trkpt>
      <trkpt lat="43.60662" lon="1.5057">
        <ele>189</ele>
        <time>2026-01-26T15:00:20Z</time>
      </trkpt>
      <trkpt lat="43.60594" lon="1.50577">
        <ele>189</ele>
        <time>2026-01-26T15:01:15Z</time>
      </trkpt>
      <trkpt lat="43.60572" lon="1.50561">
        <ele>187</ele>
        <time>2026-01-26T15:01:35Z</time>
      </trkpt>
      <trkpt lat="43.60534" lon="1.50567">
        <ele>184</ele>
        <time>2026-01-26T15:02:05Z</time>
      </trkpt>
      <trkpt lat="43.60539" lon="1.50291">
        <ele>177</ele>
        <time>2026-01-26T15:04:46Z</time>
      </trkpt>
      <trkpt lat="43.60626" lon="1.50231">
        <ele>175</ele>
        <time>2026-01-26T15:06:03Z</time>
      </trkpt>
      <trkpt lat="43.60626" lon="1.50198">
        <ele>174</ele>
        <time>2026-01-26T15:06:22Z</time>
      </trkpt>
      <trkpt lat="43.60609" lon="1.50167">
        <ele>172</ele>
        <time>2026-01-26T15:06:45Z</time>
      </trkpt>
      <trkpt lat="43.60582" lon="1.5016">
        <ele>171</ele>
        <time>2026-01-26T15:07:07Z</time>
      </trkpt>
      <trkpt lat="43.60502" lon="1.49978">
        <ele>171</ele>
        <time>2026-01-26T15:09:10Z</time>
      </trkpt>
      <trkpt lat="43.60574" lon="1.49953">
        <ele>169</ele>
        <time>2026-01-26T15:10:10Z</time>
      </trkpt>
      <trkpt lat="43.60587" lon="1.49837">
        <ele>162</ele>
        <time>2026-01-26T15:11:18Z</time>
      </trkpt>
      <trkpt lat="43.60617" lon="1.49784">
        <ele>158</ele>
        <time>2026-01-26T15:11:57Z</time>
      </trkpt>
      <trkpt lat="43.60634" lon="1.49738">
        <ele>153</ele>
        <time>2026-01-26T15:12:27Z</time>
      </trkpt>
      <trkpt lat="43.6072" lon="1.49681">
        <ele>149</ele>
        <time>2026-01-26T15:13:43Z</time>
      </trkpt>
      <trkpt lat="43.60722" lon="1.49644">
        <ele>147</ele>
        <time>2026-01-26T15:14:05Z</time>
      </trkpt>
      <trkpt lat="43.60658" lon="1.49576">
        <ele>143</ele>
        <time>2026-01-26T15:15:09Z</time>
      </trkpt>
    </trkseg>
  </trk>
</gpx>